首页
METAR-TAF:

METAR-TAF

机场 :

维沙卡帕特南, 印度

纬度: 17-43-16N, 经度: 83-13-28E, 海拔: 6米

当前天气观测

该预报发布于1小时和55分钟前的21:30 UTC
风速4节,风向西南
温度 29°C
湿度 89%
气压 1001 hPa
能見度: 4000
散云层高于1800英尺
散云层高于9000英尺
轻雾,

METAR: VOVZ 222130Z 23004KT 4000 BR SCT018 SCT090 29/27 Q1001 NOSIG

时间: 04:55 (23:25 UTC)

预报

该预报发布于3小时和25分钟前的20:00 UTC
预报有效从22日的 21点(UTC)到 23日的 06点(UTC)
风速2节,风向多变
能見度: 4000
散云层高于1800英尺
多云层高于9000英尺
轻雾
成为
从 23日的 02点(UTC)到 23日的 04点(UTC)
风速10节,风向西南
能見度: 5000
霾,

TAF: VOVZ 222000Z 2221/2306 VRB02KT 4000 BR SCT018 BKN090 BECMG 2302/2304 23010KT 5000 HZ

超过4000个机场的气象观测和天气预报(METAR&TAF报告)。

可查询的气象台以黄色和红色小点在地图上表示。

将鼠标移到小点上方,可查看气象台名称。

然后点击查看天气观测和预报。

如需切换地图:点击带黑十字的绿色按钮放大地图;点击带横线的绿色按钮缩小地图;或者点击绿色箭头查看邻近地区的地图。


METAR-TAF: